Time,TemperatureF,DewpointF,PressureIn,WindDirection,WindDirectionDegrees,WindSpeedMPH,WindSpeedGustMPH,Humidity,HourlyPrecipIn,Conditions,Clouds,dailyrainin,SoftwareType,DateUTC
2013-01-01 00:07:00,40.8,25.5,29.93,WNW,292,1.1,-999.0,54,-99.99,,,0.00,Acu-Link.com,2013-01-01 05:07:00,
2013-01-01 00:22:00,41.2,24.9,29.90,West,270,1.7,-999.0,52,-99.99,,,0.00,Acu-Link.com,2013-01-01 05:22:00,
2013-01-01 00:38:00,41.4,24.6,29.90,WNW,292,3.2,-999.0,51,-99.99,,,0.00,Acu-Link.com,2013-01-01 05:38:00,
2013-01-01 00:53:00,40.8,25.0,29.89,NW,315,2.7,-999.0,53,-99.99,,,0.00,Acu-Link.com,2013-01-01 05:53:00,
2013-01-01 01:08:00,40.8,25.5,29.87,WNW,292,2.2,-999.0,54,-99.99,,,0.00,Acu-Link.com,2013-01-01 06:08:00,
2013-01-01 01:23:00,40.8,26.3,29.88,WNW,292,4.2,-999.0,56,-99.99,,,0.00,Acu-Link.com,2013-01-01 06:23:00,
2013-01-01 01:39:00,40.3,26.7,29.89,WNW,292,4.7,-999.0,58,-99.99,,,0.00,Acu-Link.com,2013-01-01 06:39:00,
2013-01-01 01:54:00,39.9,26.8,29.86,West,270,3.2,-999.0,59,-99.99,,,0.00,Acu-Link.com,2013-01-01 06:54:00,
2013-01-01 02:09:00,39.7,27.4,29.88,WNW,292,3.7,-999.0,61,-99.99,,,0.00,Acu-Link.com,2013-01-01 07:09:00,
2013-01-01 02:25:00,39.6,27.7,29.87,WNW,292,3.2,-999.0,62,-99.99,,,0.00,Acu-Link.com,2013-01-01 07:25:00,
2013-01-01 02:40:00,39.7,27.0,29.87,WNW,292,3.7,-999.0,60,-99.99,,,0.00,Acu-Link.com,2013-01-01 07:40:00,
2013-01-01 02:55:00,39.9,27.2,29.88,WNW,292,4.2,-999.0,60,-99.99,,,0.00,Acu-Link.com,2013-01-01 07:55:00,
2013-01-01 03:11:00,39.9,27.6,29.87,West,270,3.7,-999.0,61,-99.99,,,0.00,Acu-Link.com,2013-01-01 08:11:00,
2013-01-01 03:26:00,39.9,26.3,29.87,WNW,292,2.7,-999.0,58,-99.99,,,0.00,Acu-Link.com,2013-01-01 08:26:00,
2013-01-01 03:41:00,41.4,29.8,29.87,WNW,292,3.2,-999.0,63,-99.99,,,0.00,Acu-Link.com,2013-01-01 08:41:00,
2013-01-01 03:57:00,40.5,27.7,29.86,NW,315,3.2,-999.0,60,-99.99,,,0.00,Acu-Link.com,2013-01-01 08:57:00,
2013-01-01 04:12:00,40.5,28.1,29.86,West,270,2.7,-999.0,61,-99.99,,,0.00,Acu-Link.com,2013-01-01 09:12:00,
2013-01-01 04:27:00,40.6,28.2,29.85,WNW,292,1.7,-999.0,61,-99.99,,,0.00,Acu-Link.com,2013-01-01 09:27:00,
2013-01-01 04:42:00,41.0,29.8,29.86,WNW,292,2.7,-999.0,64,-99.99,,,0.00,Acu-Link.com,2013-01-01 09:42:00,
2013-01-01 04:58:00,41.2,30.3,29.85,WNW,292,2.7,-999.0,65,-99.99,,,0.00,Acu-Link.com,2013-01-01 09:58:00,
2013-01-01 05:13:00,41.0,30.2,29.87,SSW,202,0.0,-999.0,65,-99.99,,,0.00,Acu-Link.com,2013-01-01 10:13:00,
2013-01-01 05:29:00,41.4,32.0,29.86,SW,225,2.2,-999.0,69,-99.99,,,0.00,Acu-Link.com,2013-01-01 10:29:00,
2013-01-01 05:44:00,42.4,32.6,29.86,WNW,292,2.2,-999.0,68,-99.99,,,0.00,Acu-Link.com,2013-01-01 10:44:00,
2013-01-01 05:59:00,41.4,33.7,29.87,West,270,2.7,-999.0,74,-99.99,,,0.00,Acu-Link.com,2013-01-01 10:59:00,
2013-01-01 06:14:00,40.3,33.3,29.88,WNW,292,3.7,-999.0,76,-99.99,,,0.00,Acu-Link.com,2013-01-01 11:14:00,
2013-01-01 06:30:00,39.9,32.0,29.88,NW,315,3.2,-999.0,73,-99.99,,,0.00,Acu-Link.com,2013-01-01 11:30:00,
2013-01-01 06:45:00,38.1,30.9,29.89,WNW,292,4.2,-999.0,75,-99.99,,,0.00,Acu-Link.com,2013-01-01 11:45:00,
2013-01-01 07:00:00,39.0,28.6,29.89,NNW,337,6.3,-999.0,66,-99.99,,,0.00,Acu-Link.com,2013-01-01 12:00:00,
2013-01-01 07:16:00,39.7,30.7,29.91,NW,315,7.3,-999.0,70,-99.99,,,0.00,Acu-Link.com,2013-01-01 12:16:00,
2013-01-01 07:31:00,38.8,37.8,29.91,West,270,4.2,-999.0,96,-99.99,,,0.00,Acu-Link.com,2013-01-01 12:31:00,
2013-01-01 07:46:00,37.9,37.4,29.91,West,270,3.7,-999.0,98,-99.99,,,0.00,Acu-Link.com,2013-01-01 12:46:00,
2013-01-01 08:02:00,39.2,38.7,29.91,ESE,112,0.0,-999.0,98,-99.99,,,0.00,Acu-Link.com,2013-01-01 13:02:00,
2013-01-01 08:17:00,41.7,41.2,29.89,NNW,337,1.7,-999.0,98,-99.99,,,0.01,Acu-Link.com,2013-01-01 13:17:00,
2013-01-01 08:32:00,41.7,41.2,29.90,West,270,1.7,-999.0,98,-99.99,,,0.01,Acu-Link.com,2013-01-01 13:32:00,
2013-01-01 08:48:00,41.7,41.2,29.91,NW,315,2.7,-999.0,98,-99.99,,,0.02,Acu-Link.com,2013-01-01 13:48:00,
2013-01-01 09:03:00,40.8,40.3,29.90,West,270,3.2,-999.0,98,-99.99,,,0.02,Acu-Link.com,2013-01-01 14:03:00,
2013-01-01 09:18:00,41.2,40.7,29.92,WNW,292,3.2,-999.0,98,-99.99,,,0.02,Acu-Link.com,2013-01-01 14:18:00,
2013-01-01 09:34:00,40.5,40.0,29.91,NW,315,3.2,-999.0,98,-99.99,,,0.03,Acu-Link.com,2013-01-01 14:34:00,
2013-01-01 09:49:00,40.8,40.3,29.91,NW,315,1.7,-999.0,98,-99.99,,,0.03,Acu-Link.com,2013-01-01 14:49:00,
2013-01-01 10:04:00,40.1,39.6,29.92,WNW,292,3.2,-999.0,98,-99.99,,,0.03,Acu-Link.com,2013-01-01 15:04:00,
2013-01-01 10:20:00,40.1,39.6,29.91,WNW,292,3.7,-999.0,98,-99.99,,,0.04,Acu-Link.com,2013-01-01 15:20:00,
2013-01-01 10:35:00,41.0,40.5,29.91,NNW,337,1.7,-999.0,98,-99.99,,,0.04,Acu-Link.com,2013-01-01 15:35:00,
2013-01-01 10:50:00,41.9,41.4,29.91,West,270,2.2,-999.0,98,-99.99,,,0.04,Acu-Link.com,2013-01-01 15:50:00,
2013-01-01 11:05:00,42.8,42.3,29.92,West,270,0.0,-999.0,98,-99.99,,,0.05,Acu-Link.com,2013-01-01 16:05:00,
2013-01-01 11:21:00,43.3,42.8,29.91,NW,315,1.7,-999.0,98,-99.99,,,0.05,Acu-Link.com,2013-01-01 16:21:00,
2013-01-01 11:36:00,44.2,43.7,29.90,WNW,292,2.2,-999.0,98,-99.99,,,0.05,Acu-Link.com,2013-01-01 16:36:00,
2013-01-01 11:51:00,44.6,44.1,29.89,West,270,0.0,-999.0,98,-99.99,,,0.05,Acu-Link.com,2013-01-01 16:51:00,
2013-01-01 12:07:00,45.1,44.6,29.89,West,270,0.0,-999.0,98,-99.99,,,0.06,Acu-Link.com,2013-01-01 17:07:00,
2013-01-01 12:22:00,45.5,45.0,29.87,WNW,292,1.7,-999.0,98,-99.99,,,0.06,Acu-Link.com,2013-01-01 17:22:00,
2013-01-01 12:37:00,45.9,45.4,29.86,West,270,1.7,-999.0,98,-99.99,,,0.08,Acu-Link.com,2013-01-01 17:37:00,
2013-01-01 12:53:00,46.2,45.7,29.86,West,270,2.2,-999.0,98,-99.99,,,0.12,Acu-Link.com,2013-01-01 17:53:00,
2013-01-01 13:08:00,45.5,45.0,29.85,West,270,2.2,-999.0,98,-99.99,,,0.14,Acu-Link.com,2013-01-01 18:08:00,
2013-01-01 13:23:00,45.5,45.0,29.84,SSW,202,2.2,-999.0,98,-99.99,,,0.16,Acu-Link.com,2013-01-01 18:23:00,
2013-01-01 13:39:00,46.8,46.3,29.82,SW,225,1.7,-999.0,98,-99.99,,,0.18,Acu-Link.com,2013-01-01 18:39:00,
2013-01-01 13:54:00,47.1,46.6,29.82,WNW,292,1.7,-999.0,98,-99.99,,,0.20,Acu-Link.com,2013-01-01 18:54:00,
2013-01-01 14:09:00,47.3,46.8,29.82,WNW,292,2.2,-999.0,98,-99.99,,,0.22,Acu-Link.com,2013-01-01 19:09:00,
2013-01-01 14:25:00,47.3,46.8,29.81,WNW,292,2.7,-999.0,98,-99.99,,,0.23,Acu-Link.com,2013-01-01 19:25:00,
2013-01-01 14:40:00,44.2,43.7,29.82,NW,315,4.2,-999.0,98,-99.99,,,0.24,Acu-Link.com,2013-01-01 19:40:00,
2013-01-01 14:55:00,44.1,43.6,29.81,WNW,292,2.7,-999.0,98,-99.99,,,0.25,Acu-Link.com,2013-01-01 19:55:00,
2013-01-01 15:10:00,46.2,45.7,29.81,NW,315,0.0,-999.0,98,-99.99,,,0.26,Acu-Link.com,2013-01-01 20:10:00,
2013-01-01 15:26:00,46.9,46.4,29.80,West,270,2.7,-999.0,98,-99.99,,,0.26,Acu-Link.com,2013-01-01 20:26:00,
2013-01-01 15:41:00,46.9,46.4,29.81,WNW,292,2.7,-999.0,98,-99.99,,,0.26,Acu-Link.com,2013-01-01 20:41:00,
2013-01-01 15:56:00,46.9,46.4,29.81,West,270,3.2,-999.0,98,-99.99,,,0.26,Acu-Link.com,2013-01-01 20:56:00,
2013-01-01 16:12:00,46.9,46.4,29.82,West,270,2.7,-999.0,98,-99.99,,,0.26,Acu-Link.com,2013-01-01 21:12:00,
2013-01-01 16:27:00,46.9,46.4,29.82,WNW,292,1.7,-999.0,98,-99.99,,,0.26,Acu-Link.com,2013-01-01 21:27:00,
2013-01-01 16:42:00,45.9,45.4,29.82,WNW,292,3.7,-999.0,98,-99.99,,,0.27,Acu-Link.com,2013-01-01 21:42:00,
2013-01-01 16:58:00,45.3,44.8,29.82,West,270,3.7,-999.0,98,-99.99,,,0.27,Acu-Link.com,2013-01-01 21:58:00,
2013-01-01 17:13:00,45.5,45.0,29.82,WNW,292,2.7,-999.0,98,-99.99,,,0.28,Acu-Link.com,2013-01-01 22:13:00,
2013-01-01 17:28:00,45.7,45.2,29.81,West,270,0.0,-999.0,98,-99.99,,,0.30,Acu-Link.com,2013-01-01 22:28:00,
2013-01-01 17:44:00,46.0,45.5,29.82,SSE,157,0.0,-999.0,98,-99.99,,,0.30,Acu-Link.com,2013-01-01 22:44:00,
2013-01-01 17:59:00,46.4,45.9,29.82,WNW,292,0.0,-999.0,98,-99.99,,,0.31,Acu-Link.com,2013-01-01 22:59:00,
2013-01-01 18:14:00,46.4,45.9,29.80,SE,135,0.0,-999.0,98,-99.99,,,0.31,Acu-Link.com,2013-01-01 23:14:00,
2013-01-01 18:30:00,46.4,45.9,29.80,West,270,1.7,-999.0,98,-99.99,,,0.31,Acu-Link.com,2013-01-01 23:30:00,
2013-01-01 18:45:00,46.2,45.7,29.81,WNW,292,2.7,-999.0,98,-99.99,,,0.32,Acu-Link.com,2013-01-01 23:45:00,
2013-01-01 19:00:00,45.9,45.4,29.83,WNW,292,2.7,-999.0,98,-99.99,,,0.32,Acu-Link.com,2013-01-02 00:00:00,
2013-01-01 19:15:00,45.5,45.0,29.81,WNW,292,2.2,-999.0,98,-99.99,,,0.34,Acu-Link.com,2013-01-02 00:15:00,
2013-01-01 19:31:00,45.5,45.0,29.81,NW,315,0.0,-999.0,98,-99.99,,,0.36,Acu-Link.com,2013-01-02 00:31:00,
2013-01-01 19:46:00,45.5,45.0,29.81,West,270,2.2,-999.0,98,-99.99,,,0.37,Acu-Link.com,2013-01-02 00:46:00,
2013-01-01 20:01:00,46.0,45.5,29.83,WNW,292,2.2,-999.0,98,-99.99,,,0.37,Acu-Link.com,2013-01-02 01:01:00,
2013-01-01 20:16:00,45.7,45.2,29.82,WNW,292,2.7,-999.0,98,-99.99,,,0.38,Acu-Link.com,2013-01-02 01:16:00,
2013-01-01 20:32:00,45.9,45.4,29.81,WNW,292,1.7,-999.0,98,-99.99,,,0.39,Acu-Link.com,2013-01-02 01:32:00,
2013-01-01 20:47:00,45.9,45.4,29.80,ESE,112,0.0,-999.0,98,-99.99,,,0.39,Acu-Link.com,2013-01-02 01:47:00,
2013-01-01 21:02:00,46.0,45.5,29.81,NW,315,2.2,-999.0,98,-99.99,,,0.39,Acu-Link.com,2013-01-02 02:02:00,
2013-01-01 21:18:00,46.4,45.9,29.82,WNW,292,2.7,-999.0,98,-99.99,,,0.40,Acu-Link.com,2013-01-02 02:18:00,
2013-01-01 21:33:00,46.2,45.7,29.82,WNW,292,2.7,-999.0,98,-99.99,,,0.42,Acu-Link.com,2013-01-02 02:33:00,
2013-01-01 21:48:00,46.0,45.5,29.81,WNW,292,3.7,-999.0,98,-99.99,,,0.43,Acu-Link.com,2013-01-02 02:48:00,
2013-01-01 22:04:00,46.0,45.5,29.79,WNW,292,2.2,-999.0,98,-99.99,,,0.46,Acu-Link.com,2013-01-02 03:04:00,
2013-01-01 22:19:00,46.0,45.5,29.80,WNW,292,2.2,-999.0,98,-99.99,,,0.48,Acu-Link.com,2013-01-02 03:19:00,
2013-01-01 22:34:00,45.9,45.4,29.80,NW,315,2.7,-999.0,98,-99.99,,,0.49,Acu-Link.com,2013-01-02 03:34:00,
2013-01-01 22:50:00,45.5,45.0,29.81,WNW,292,2.2,-999.0,98,-99.99,,,0.51,Acu-Link.com,2013-01-02 03:50:00,
2013-01-01 23:05:00,45.5,45.0,29.79,NW,315,1.7,-999.0,98,-99.99,,,0.54,Acu-Link.com,2013-01-02 04:05:00,
2013-01-01 23:20:00,45.0,44.5,29.80,West,270,3.2,-999.0,98,-99.99,,,0.54,Acu-Link.com,2013-01-02 04:20:00,
2013-01-01 23:36:00,44.6,44.1,29.79,WSW,247,0.0,-999.0,98,-99.99,,,0.55,Acu-Link.com,2013-01-02 04:36:00,
2013-01-01 23:51:00,44.2,43.7,29.80,NNW,337,1.1,-999.0,98,-99.99,,,0.55,Acu-Link.com,2013-01-02 04:51:00,